sensor_id;sensor_type;location;lat;lon;timestamp;P1;durP1;ratioP1;P2;durP2;ratioP2
61477;SDS011;47345;52.334;10.392;2022-10-16T00:01:20;1.10;;;1.10;;
61477;SDS011;47345;52.334;10.392;2022-10-16T00:03:52;2.80;;;1.60;;
61477;SDS011;47345;52.334;10.392;2022-10-16T00:06:24;1.60;;;1.50;;
61477;SDS011;47345;52.334;10.392;2022-10-16T00:08:55;1.40;;;1.30;;
61477;SDS011;47345;52.334;10.392;2022-10-16T00:11:27;1.50;;;1.40;;
61477;SDS011;47345;52.334;10.392;2022-10-16T00:14:01;1.10;;;1.10;;
61477;SDS011;47345;52.334;10.392;2022-10-16T00:16:33;1.40;;;1.30;;
61477;SDS011;47345;52.334;10.392;2022-10-16T00:19:04;2.40;;;1.50;;
61477;SDS011;47345;52.334;10.392;2022-10-16T00:21:35;1.40;;;1.30;;
61477;SDS011;47345;52.334;10.392;2022-10-16T00:24:07;1.50;;;1.40;;
61477;SDS011;47345;52.334;10.392;2022-10-16T00:26:38;1.70;;;1.40;;
61477;SDS011;47345;52.334;10.392;2022-10-16T00:29:09;1.40;;;1.30;;
61477;SDS011;47345;52.334;10.392;2022-10-16T00:31:41;1.10;;;1.10;;
61477;SDS011;47345;52.334;10.392;2022-10-16T00:34:11;1.50;;;1.40;;
61477;SDS011;47345;52.334;10.392;2022-10-16T00:36:42;2.40;;;1.40;;
61477;SDS011;47345;52.334;10.392;2022-10-16T00:39:13;1.60;;;1.50;;
61477;SDS011;47345;52.334;10.392;2022-10-16T00:41:44;1.90;;;1.40;;
61477;SDS011;47345;52.334;10.392;2022-10-16T00:47:21;1.50;;;1.40;;
61477;SDS011;47345;52.334;10.392;2022-10-16T00:49:55;1.50;;;1.40;;
61477;SDS011;47345;52.334;10.392;2022-10-16T00:52:30;4.50;;;1.60;;
61477;SDS011;47345;52.334;10.392;2022-10-16T00:55:02;3.40;;;1.40;;
61477;SDS011;47345;52.334;10.392;2022-10-16T00:57:35;5.70;;;1.60;;
61477;SDS011;47345;52.334;10.392;2022-10-16T01:00:09;1.80;;;1.40;;
61477;SDS011;47345;52.334;10.392;2022-10-16T01:02:42;2.50;;;1.70;;
61477;SDS011;47345;52.334;10.392;2022-10-16T01:05:13;2.90;;;1.80;;
61477;SDS011;47345;52.334;10.392;2022-10-16T01:07:45;1.70;;;1.60;;
61477;SDS011;47345;52.334;10.392;2022-10-16T01:10:27;2.20;;;1.70;;
61477;SDS011;47345;52.334;10.392;2022-10-16T01:13:04;1.70;;;1.60;;
61477;SDS011;47345;52.334;10.392;2022-10-16T01:15:40;1.90;;;1.70;;
61477;SDS011;47345;52.334;10.392;2022-10-16T01:18:18;1.80;;;1.70;;
61477;SDS011;47345;52.334;10.392;2022-10-16T01:20:54;2.20;;;1.60;;
61477;SDS011;47345;52.334;10.392;2022-10-16T01:23:31;1.80;;;1.70;;
61477;SDS011;47345;52.334;10.392;2022-10-16T01:26:15;1.70;;;1.60;;
61477;SDS011;47345;52.334;10.392;2022-10-16T01:29:01;1.70;;;1.60;;
61477;SDS011;47345;52.334;10.392;2022-10-16T01:31:38;2.70;;;1.80;;
61477;SDS011;47345;52.334;10.392;2022-10-16T01:34:13;1.80;;;1.70;;
61477;SDS011;47345;52.334;10.392;2022-10-16T01:36:49;2.40;;;1.90;;
61477;SDS011;47345;52.334;10.392;2022-10-16T01:39:24;1.90;;;1.80;;
61477;SDS011;47345;52.334;10.392;2022-10-16T01:41:58;1.90;;;1.80;;
61477;SDS011;47345;52.334;10.392;2022-10-16T01:44:33;1.60;;;1.50;;
61477;SDS011;47345;52.334;10.392;2022-10-16T01:47:07;1.60;;;1.50;;
61477;SDS011;47345;52.334;10.392;2022-10-16T01:49:39;1.60;;;1.50;;
61477;SDS011;47345;52.334;10.392;2022-10-16T01:52:14;1.80;;;1.70;;
61477;SDS011;47345;52.334;10.392;2022-10-16T01:54:49;2.80;;;1.70;;
61477;SDS011;47345;52.334;10.392;2022-10-16T01:57:22;2.40;;;1.70;;
61477;SDS011;47345;52.334;10.392;2022-10-16T01:59:56;1.80;;;1.60;;
61477;SDS011;47345;52.334;10.392;2022-10-16T02:02:30;1.80;;;1.70;;
61477;SDS011;47345;52.334;10.392;2022-10-16T02:05:03;1.90;;;1.70;;
61477;SDS011;47345;52.334;10.392;2022-10-16T02:07:39;1.80;;;1.70;;
61477;SDS011;47345;52.334;10.392;2022-10-16T02:10:10;1.90;;;1.80;;
61477;SDS011;47345;52.334;10.392;2022-10-16T02:12:42;2.00;;;1.80;;
61477;SDS011;47345;52.334;10.392;2022-10-16T02:15:16;1.50;;;1.40;;
61477;SDS011;47345;52.334;10.392;2022-10-16T02:17:47;2.70;;;1.90;;
61477;SDS011;47345;52.334;10.392;2022-10-16T02:20:18;3.00;;;1.70;;
61477;SDS011;47345;52.334;10.392;2022-10-16T02:22:54;2.10;;;1.50;;
61477;SDS011;47345;52.334;10.392;2022-10-16T02:25:29;2.00;;;1.60;;
61477;SDS011;47345;52.334;10.392;2022-10-16T02:28:03;2.20;;;1.80;;
61477;SDS011;47345;52.334;10.392;2022-10-16T02:30:42;2.00;;;1.70;;
61477;SDS011;47345;52.334;10.392;2022-10-16T02:33:16;1.60;;;1.50;;
61477;SDS011;47345;52.334;10.392;2022-10-16T02:35:50;1.90;;;1.70;;
61477;SDS011;47345;52.334;10.392;2022-10-16T02:38:22;2.50;;;1.60;;
61477;SDS011;47345;52.334;10.392;2022-10-16T02:40:54;1.60;;;1.50;;
61477;SDS011;47345;52.334;10.392;2022-10-16T02:43:25;1.80;;;1.70;;
61477;SDS011;47345;52.334;10.392;2022-10-16T02:45:56;1.60;;;1.50;;
61477;SDS011;47345;52.334;10.392;2022-10-16T02:48:27;2.20;;;1.70;;
61477;SDS011;47345;52.334;10.392;2022-10-16T02:50:58;1.80;;;1.70;;
61477;SDS011;47345;52.334;10.392;2022-10-16T02:53:29;1.70;;;1.60;;
61477;SDS011;47345;52.334;10.392;2022-10-16T02:56:00;3.10;;;1.50;;
61477;SDS011;47345;52.334;10.392;2022-10-16T02:58:31;1.60;;;1.50;;
61477;SDS011;47345;52.334;10.392;2022-10-16T03:01:02;1.60;;;1.50;;
61477;SDS011;47345;52.334;10.392;2022-10-16T03:03:33;2.30;;;1.80;;
61477;SDS011;47345;52.334;10.392;2022-10-16T03:06:03;1.70;;;1.60;;
61477;SDS011;47345;52.334;10.392;2022-10-16T03:08:34;2.00;;;1.60;;
61477;SDS011;47345;52.334;10.392;2022-10-16T03:11:05;1.60;;;1.50;;
61477;SDS011;47345;52.334;10.392;2022-10-16T03:13:36;1.60;;;1.50;;
61477;SDS011;47345;52.334;10.392;2022-10-16T03:16:06;1.70;;;1.60;;
61477;SDS011;47345;52.334;10.392;2022-10-16T03:18:37;2.10;;;1.70;;
61477;SDS011;47345;52.334;10.392;2022-10-16T03:21:08;1.90;;;1.70;;
61477;SDS011;47345;52.334;10.392;2022-10-16T03:23:39;2.70;;;1.80;;
61477;SDS011;47345;52.334;10.392;2022-10-16T03:26:10;1.90;;;1.80;;
61477;SDS011;47345;52.334;10.392;2022-10-16T03:28:41;1.90;;;1.80;;
61477;SDS011;47345;52.334;10.392;2022-10-16T03:31:12;2.90;;;2.10;;
61477;SDS011;47345;52.334;10.392;2022-10-16T03:33:43;1.90;;;1.80;;
61477;SDS011;47345;52.334;10.392;2022-10-16T03:36:14;2.90;;;1.50;;
61477;SDS011;47345;52.334;10.392;2022-10-16T03:38:44;1.70;;;1.60;;
61477;SDS011;47345;52.334;10.392;2022-10-16T03:41:15;5.50;;;2.10;;
61477;SDS011;47345;52.334;10.392;2022-10-16T03:43:45;2.10;;;1.70;;
61477;SDS011;47345;52.334;10.392;2022-10-16T03:46:16;1.60;;;1.50;;
61477;SDS011;47345;52.334;10.392;2022-10-16T03:48:46;1.80;;;1.60;;
61477;SDS011;47345;52.334;10.392;2022-10-16T03:51:16;1.70;;;1.60;;
61477;SDS011;47345;52.334;10.392;2022-10-16T03:53:47;1.50;;;1.40;;
61477;SDS011;47345;52.334;10.392;2022-10-16T03:56:17;1.90;;;1.60;;
61477;SDS011;47345;52.334;10.392;2022-10-16T03:58:48;2.20;;;1.70;;
61477;SDS011;47345;52.334;10.392;2022-10-16T04:01:19;2.10;;;1.90;;
61477;SDS011;47345;52.334;10.392;2022-10-16T04:03:49;1.90;;;1.80;;
61477;SDS011;47345;52.334;10.392;2022-10-16T04:06:20;3.30;;;1.80;;
61477;SDS011;47345;52.334;10.392;2022-10-16T04:08:50;2.10;;;1.70;;
61477;SDS011;47345;52.334;10.392;2022-10-16T04:11:21;2.70;;;1.90;;
61477;SDS011;47345;52.334;10.392;2022-10-16T04:13:52;3.00;;;1.80;;
61477;SDS011;47345;52.334;10.392;2022-10-16T04:16:22;2.30;;;1.70;;
61477;SDS011;47345;52.334;10.392;2022-10-16T04:18:53;2.00;;;1.80;;
61477;SDS011;47345;52.334;10.392;2022-10-16T04:21:24;3.30;;;2.00;;
61477;SDS011;47345;52.334;10.392;2022-10-16T04:23:55;1.80;;;1.70;;
61477;SDS011;47345;52.334;10.392;2022-10-16T04:26:25;2.00;;;1.80;;
61477;SDS011;47345;52.334;10.392;2022-10-16T04:28:56;1.70;;;1.60;;
61477;SDS011;47345;52.334;10.392;2022-10-16T04:31:27;3.90;;;2.00;;
61477;SDS011;47345;52.334;10.392;2022-10-16T04:33:58;2.30;;;1.90;;
61477;SDS011;47345;52.334;10.392;2022-10-16T04:36:29;2.90;;;1.90;;
61477;SDS011;47345;52.334;10.392;2022-10-16T04:39:00;2.20;;;1.90;;
61477;SDS011;47345;52.334;10.392;2022-10-16T04:41:30;2.30;;;2.10;;
61477;SDS011;47345;52.334;10.392;2022-10-16T04:44:01;2.20;;;2.00;;
61477;SDS011;47345;52.334;10.392;2022-10-16T04:46:32;2.00;;;1.90;;
61477;SDS011;47345;52.334;10.392;2022-10-16T04:49:03;2.60;;;2.30;;
61477;SDS011;47345;52.334;10.392;2022-10-16T04:51:34;2.30;;;2.10;;
61477;SDS011;47345;52.334;10.392;2022-10-16T04:54:04;2.90;;;2.00;;
61477;SDS011;47345;52.334;10.392;2022-10-16T04:56:35;4.50;;;2.30;;
61477;SDS011;47345;52.334;10.392;2022-10-16T04:59:14;3.10;;;2.30;;
61477;SDS011;47345;52.334;10.392;2022-10-16T05:01:46;2.50;;;1.90;;
61477;SDS011;47345;52.334;10.392;2022-10-16T05:04:17;3.40;;;2.20;;
61477;SDS011;47345;52.334;10.392;2022-10-16T05:06:48;3.90;;;2.20;;
61477;SDS011;47345;52.334;10.392;2022-10-16T05:09:19;2.10;;;1.90;;
61477;SDS011;47345;52.334;10.392;2022-10-16T05:11:50;2.40;;;2.20;;
61477;SDS011;47345;52.334;10.392;2022-10-16T05:14:21;2.50;;;2.20;;
61477;SDS011;47345;52.334;10.392;2022-10-16T05:16:52;2.80;;;2.50;;
61477;SDS011;47345;52.334;10.392;2022-10-16T05:19:23;2.30;;;2.10;;
61477;SDS011;47345;52.334;10.392;2022-10-16T05:21:55;2.40;;;2.20;;
61477;SDS011;47345;52.334;10.392;2022-10-16T05:24:27;3.00;;;2.50;;
61477;SDS011;47345;52.334;10.392;2022-10-16T05:26:58;2.80;;;2.50;;
61477;SDS011;47345;52.334;10.392;2022-10-16T05:29:29;2.90;;;2.20;;
61477;SDS011;47345;52.334;10.392;2022-10-16T05:32:00;2.60;;;2.10;;
61477;SDS011;47345;52.334;10.392;2022-10-16T05:34:31;4.80;;;2.20;;
61477;SDS011;47345;52.334;10.392;2022-10-16T05:37:02;3.50;;;2.30;;
61477;SDS011;47345;52.334;10.392;2022-10-16T05:39:32;2.50;;;2.20;;
61477;SDS011;47345;52.334;10.392;2022-10-16T05:42:04;5.90;;;2.40;;
61477;SDS011;47345;52.334;10.392;2022-10-16T05:44:35;3.10;;;2.70;;
61477;SDS011;47345;52.334;10.392;2022-10-16T05:47:06;2.40;;;2.10;;
61477;SDS011;47345;52.334;10.392;2022-10-16T05:49:38;7.90;;;2.60;;
61477;SDS011;47345;52.334;10.392;2022-10-16T05:52:09;2.90;;;2.40;;
61477;SDS011;47345;52.334;10.392;2022-10-16T05:54:40;2.50;;;2.30;;
61477;SDS011;47345;52.334;10.392;2022-10-16T05:57:11;3.80;;;2.20;;
61477;SDS011;47345;52.334;10.392;2022-10-16T05:59:42;3.40;;;2.40;;
61477;SDS011;47345;52.334;10.392;2022-10-16T06:02:13;5.10;;;2.30;;
61477;SDS011;47345;52.334;10.392;2022-10-16T06:04:45;3.00;;;2.40;;
61477;SDS011;47345;52.334;10.392;2022-10-16T06:07:15;5.90;;;2.50;;
61477;SDS011;47345;52.334;10.392;2022-10-16T06:09:48;2.60;;;2.40;;
61477;SDS011;47345;52.334;10.392;2022-10-16T06:12:19;2.60;;;2.40;;
61477;SDS011;47345;52.334;10.392;2022-10-16T06:14:50;3.50;;;2.50;;
61477;SDS011;47345;52.334;10.392;2022-10-16T06:17:21;2.20;;;2.10;;
61477;SDS011;47345;52.334;10.392;2022-10-16T06:19:51;2.30;;;2.10;;
61477;SDS011;47345;52.334;10.392;2022-10-16T06:22:22;2.80;;;2.50;;
61477;SDS011;47345;52.334;10.392;2022-10-16T06:24:53;2.40;;;2.20;;
61477;SDS011;47345;52.334;10.392;2022-10-16T06:27:23;2.90;;;2.50;;
61477;SDS011;47345;52.334;10.392;2022-10-16T06:29:55;4.30;;;2.30;;
61477;SDS011;47345;52.334;10.392;2022-10-16T06:32:25;3.70;;;2.50;;
61477;SDS011;47345;52.334;10.392;2022-10-16T06:34:56;3.10;;;2.70;;
61477;SDS011;47345;52.334;10.392;2022-10-16T06:37:26;3.90;;;2.60;;
61477;SDS011;47345;52.334;10.392;2022-10-16T06:39:57;2.40;;;2.10;;
61477;SDS011;47345;52.334;10.392;2022-10-16T06:42:27;4.10;;;2.90;;
61477;SDS011;47345;52.334;10.392;2022-10-16T06:44:58;2.90;;;2.40;;
61477;SDS011;47345;52.334;10.392;2022-10-16T06:47:29;2.60;;;2.40;;
61477;SDS011;47345;52.334;10.392;2022-10-16T06:49:59;3.60;;;2.70;;
61477;SDS011;47345;52.334;10.392;2022-10-16T06:52:31;4.60;;;3.00;;
61477;SDS011;47345;52.334;10.392;2022-10-16T06:55:02;4.40;;;2.30;;
61477;SDS011;47345;52.334;10.392;2022-10-16T06:57:33;6.10;;;4.30;;
61477;SDS011;47345;52.334;10.392;2022-10-16T07:00:05;3.80;;;3.10;;
61477;SDS011;47345;52.334;10.392;2022-10-16T07:02:36;2.70;;;2.50;;
61477;SDS011;47345;52.334;10.392;2022-10-16T07:05:07;3.00;;;2.60;;
61477;SDS011;47345;52.334;10.392;2022-10-16T07:07:38;2.60;;;2.40;;
61477;SDS011;47345;52.334;10.392;2022-10-16T07:10:09;2.80;;;2.50;;
61477;SDS011;47345;52.334;10.392;2022-10-16T07:12:40;2.90;;;2.60;;
61477;SDS011;47345;52.334;10.392;2022-10-16T07:15:12;2.80;;;2.30;;
61477;SDS011;47345;52.334;10.392;2022-10-16T07:17:43;6.50;;;3.30;;
61477;SDS011;47345;52.334;10.392;2022-10-16T07:20:14;3.10;;;2.60;;
61477;SDS011;47345;52.334;10.392;2022-10-16T07:22:45;2.60;;;2.30;;
61477;SDS011;47345;52.334;10.392;2022-10-16T07:25:15;2.40;;;2.20;;
61477;SDS011;47345;52.334;10.392;2022-10-16T07:27:46;3.10;;;2.40;;
61477;SDS011;47345;52.334;10.392;2022-10-16T07:30:16;2.40;;;2.20;;
61477;SDS011;47345;52.334;10.392;2022-10-16T07:32:47;2.60;;;2.40;;
61477;SDS011;47345;52.334;10.392;2022-10-16T07:35:17;2.50;;;2.20;;
61477;SDS011;47345;52.334;10.392;2022-10-16T07:37:48;4.30;;;2.30;;
61477;SDS011;47345;52.334;10.392;2022-10-16T07:40:19;3.00;;;2.30;;
61477;SDS011;47345;52.334;10.392;2022-10-16T07:42:51;2.40;;;2.10;;
61477;SDS011;47345;52.334;10.392;2022-10-16T07:45:23;2.20;;;2.00;;
61477;SDS011;47345;52.334;10.392;2022-10-16T07:47:55;2.80;;;2.20;;
61477;SDS011;47345;52.334;10.392;2022-10-16T07:50:26;2.30;;;2.10;;
61477;SDS011;47345;52.334;10.392;2022-10-16T07:52:58;3.30;;;2.70;;
61477;SDS011;47345;52.334;10.392;2022-10-16T07:55:29;2.60;;;2.40;;
61477;SDS011;47345;52.334;10.392;2022-10-16T07:58:00;2.90;;;2.00;;
61477;SDS011;47345;52.334;10.392;2022-10-16T08:00:32;3.20;;;2.30;;
61477;SDS011;47345;52.334;10.392;2022-10-16T08:03:07;3.00;;;2.30;;
61477;SDS011;47345;52.334;10.392;2022-10-16T08:05:39;2.40;;;2.10;;
61477;SDS011;47345;52.334;10.392;2022-10-16T08:08:13;4.40;;;2.20;;
61477;SDS011;47345;52.334;10.392;2022-10-16T08:10:46;2.00;;;1.90;;
61477;SDS011;47345;52.334;10.392;2022-10-16T08:13:19;1.80;;;1.70;;
61477;SDS011;47345;52.334;10.392;2022-10-16T08:15:51;1.80;;;1.70;;
61477;SDS011;47345;52.334;10.392;2022-10-16T08:18:24;2.10;;;1.90;;
61477;SDS011;47345;52.334;10.392;2022-10-16T08:20:58;1.80;;;1.70;;
61477;SDS011;47345;52.334;10.392;2022-10-16T08:23:29;2.20;;;1.80;;
61477;SDS011;47345;52.334;10.392;2022-10-16T08:26:03;5.00;;;2.40;;
61477;SDS011;47345;52.334;10.392;2022-10-16T08:28:35;2.00;;;1.90;;
61477;SDS011;47345;52.334;10.392;2022-10-16T08:31:08;1.80;;;1.70;;
61477;SDS011;47345;52.334;10.392;2022-10-16T08:33:40;4.20;;;1.90;;
61477;SDS011;47345;52.334;10.392;2022-10-16T08:36:13;1.90;;;1.80;;
61477;SDS011;47345;52.334;10.392;2022-10-16T08:38:46;1.80;;;1.70;;
61477;SDS011;47345;52.334;10.392;2022-10-16T08:41:26;1.80;;;1.70;;
61477;SDS011;47345;52.334;10.392;2022-10-16T08:47:25;1.60;;;1.50;;
61477;SDS011;47345;52.334;10.392;2022-10-16T08:50:08;1.70;;;1.50;;
61477;SDS011;47345;52.334;10.392;2022-10-16T08:52:41;1.60;;;1.50;;
61477;SDS011;47345;52.334;10.392;2022-10-16T08:55:17;1.50;;;1.40;;
61477;SDS011;47345;52.334;10.392;2022-10-16T08:58:05;1.60;;;1.50;;
61477;SDS011;47345;52.334;10.392;2022-10-16T09:00:42;1.50;;;1.40;;
61477;SDS011;47345;52.334;10.392;2022-10-16T09:03:16;2.00;;;1.80;;
61477;SDS011;47345;52.334;10.392;2022-10-16T09:06:09;1.70;;;1.60;;
61477;SDS011;47345;52.334;10.392;2022-10-16T09:08:58;1.70;;;1.50;;
61477;SDS011;47345;52.334;10.392;2022-10-16T09:11:41;2.20;;;1.30;;
61477;SDS011;47345;52.334;10.392;2022-10-16T09:14:32;1.50;;;1.40;;
61477;SDS011;47345;52.334;10.392;2022-10-16T09:17:20;2.00;;;1.40;;
61477;SDS011;47345;52.334;10.392;2022-10-16T09:20:01;1.50;;;1.40;;
61477;SDS011;47345;52.334;10.392;2022-10-16T09:22:41;1.20;;;1.20;;
61477;SDS011;47345;52.334;10.392;2022-10-16T09:25:13;2.20;;;1.30;;
61477;SDS011;47345;52.334;10.392;2022-10-16T09:27:45;1.30;;;1.30;;
61477;SDS011;47345;52.334;10.392;2022-10-16T09:30:18;1.70;;;1.60;;
61477;SDS011;47345;52.334;10.392;2022-10-16T09:32:51;1.50;;;1.40;;
61477;SDS011;47345;52.334;10.392;2022-10-16T09:35:24;1.30;;;1.20;;
61477;SDS011;47345;52.334;10.392;2022-10-16T09:40:30;2.00;;;1.40;;
61477;SDS011;47345;52.334;10.392;2022-10-16T09:43:03;1.50;;;1.40;;
61477;SDS011;47345;52.334;10.392;2022-10-16T09:45:54;1.20;;;1.20;;
61477;SDS011;47345;52.334;10.392;2022-10-16T09:48:26;2.50;;;1.70;;
61477;SDS011;47345;52.334;10.392;2022-10-16T09:51:01;2.20;;;2.00;;
61477;SDS011;47345;52.334;10.392;2022-10-16T09:53:39;1.70;;;1.50;;
61477;SDS011;47345;52.334;10.392;2022-10-16T09:56:20;1.70;;;1.50;;
61477;SDS011;47345;52.334;10.392;2022-10-16T09:58:52;1.60;;;1.50;;
61477;SDS011;47345;52.334;10.392;2022-10-16T10:01:26;1.50;;;1.40;;
61477;SDS011;47345;52.334;10.392;2022-10-16T10:04:04;1.80;;;1.60;;
61477;SDS011;47345;52.334;10.392;2022-10-16T10:06:36;0.90;;;0.90;;
61477;SDS011;47345;52.334;10.392;2022-10-16T10:09:18;1.10;;;1.10;;
61477;SDS011;47345;52.334;10.392;2022-10-16T10:11:52;1.20;;;1.10;;
61477;SDS011;47345;52.334;10.392;2022-10-16T10:14:30;1.30;;;1.20;;
61477;SDS011;47345;52.334;10.392;2022-10-16T10:17:16;1.40;;;1.30;;
61477;SDS011;47345;52.334;10.392;2022-10-16T10:19:53;1.20;;;1.20;;
61477;SDS011;47345;52.334;10.392;2022-10-16T10:22:27;1.00;;;1.00;;
61477;SDS011;47345;52.334;10.392;2022-10-16T10:28:15;1.10;;;1.10;;
61477;SDS011;47345;52.334;10.392;2022-10-16T10:30:56;1.50;;;1.00;;
61477;SDS011;47345;52.334;10.392;2022-10-16T10:33:34;0.90;;;0.90;;
61477;SDS011;47345;52.334;10.392;2022-10-16T10:36:14;1.70;;;1.10;;
61477;SDS011;47345;52.334;10.392;2022-10-16T10:38:54;1.20;;;1.10;;
61477;SDS011;47345;52.334;10.392;2022-10-16T10:41:36;1.30;;;1.20;;
61477;SDS011;47345;52.334;10.392;2022-10-16T10:44:24;1.10;;;1.00;;
61477;SDS011;47345;52.334;10.392;2022-10-16T10:47:04;1.20;;;1.10;;
61477;SDS011;47345;52.334;10.392;2022-10-16T10:49:48;1.10;;;1.00;;
61477;SDS011;47345;52.334;10.392;2022-10-16T10:52:36;1.80;;;1.10;;
61477;SDS011;47345;52.334;10.392;2022-10-16T10:55:18;0.90;;;0.90;;
61477;SDS011;47345;52.334;10.392;2022-10-16T10:57:56;0.80;;;0.80;;
61477;SDS011;47345;52.334;10.392;2022-10-16T11:00:44;1.20;;;0.80;;
61477;SDS011;47345;52.334;10.392;2022-10-16T11:03:28;0.90;;;0.80;;
61477;SDS011;47345;52.334;10.392;2022-10-16T11:06:10;1.00;;;1.00;;
61477;SDS011;47345;52.334;10.392;2022-10-16T11:08:46;1.10;;;1.00;;
61477;SDS011;47345;52.334;10.392;2022-10-16T11:11:29;1.10;;;1.00;;
61477;SDS011;47345;52.334;10.392;2022-10-16T11:14:04;0.80;;;0.80;;
61477;SDS011;47345;52.334;10.392;2022-10-16T11:16:44;1.20;;;0.90;;
61477;SDS011;47345;52.334;10.392;2022-10-16T11:19:25;1.70;;;1.00;;
61477;SDS011;47345;52.334;10.392;2022-10-16T11:22:06;0.70;;;0.60;;
61477;SDS011;47345;52.334;10.392;2022-10-16T11:24:42;1.00;;;1.00;;
61477;SDS011;47345;52.334;10.392;2022-10-16T11:27:19;0.80;;;0.80;;
61477;SDS011;47345;52.334;10.392;2022-10-16T11:29:53;3.90;;;1.10;;
61477;SDS011;47345;52.334;10.392;2022-10-16T11:32:31;1.20;;;1.10;;
61477;SDS011;47345;52.334;10.392;2022-10-16T11:35:11;1.20;;;1.10;;
61477;SDS011;47345;52.334;10.392;2022-10-16T11:37:48;1.60;;;1.10;;
61477;SDS011;47345;52.334;10.392;2022-10-16T11:40:23;1.10;;;1.00;;
61477;SDS011;47345;52.334;10.392;2022-10-16T11:42:59;1.00;;;1.00;;
61477;SDS011;47345;52.334;10.392;2022-10-16T11:45:39;2.80;;;1.30;;
61477;SDS011;47345;52.334;10.392;2022-10-16T11:48:14;1.20;;;1.00;;
61477;SDS011;47345;52.334;10.392;2022-10-16T11:50:53;1.10;;;1.00;;
61477;SDS011;47345;52.334;10.392;2022-10-16T11:53:38;6.30;;;1.20;;
61477;SDS011;47345;52.334;10.392;2022-10-16T11:56:16;1.20;;;1.10;;
61477;SDS011;47345;52.334;10.392;2022-10-16T11:58:51;1.50;;;1.10;;
61477;SDS011;47345;52.334;10.392;2022-10-16T12:01:28;2.50;;;1.10;;
61477;SDS011;47345;52.334;10.392;2022-10-16T12:04:18;1.60;;;1.10;;
61477;SDS011;47345;52.334;10.392;2022-10-16T12:06:58;0.80;;;0.80;;
61477;SDS011;47345;52.334;10.392;2022-10-16T12:09:34;1.00;;;1.00;;
61477;SDS011;47345;52.334;10.392;2022-10-16T12:15:15;0.70;;;0.70;;
61477;SDS011;47345;52.334;10.392;2022-10-16T12:18:21;2.30;;;0.90;;
61477;SDS011;47345;52.334;10.392;2022-10-16T12:20:56;1.20;;;0.90;;
61477;SDS011;47345;52.334;10.392;2022-10-16T12:23:32;0.80;;;0.80;;
61477;SDS011;47345;52.334;10.392;2022-10-16T12:26:06;1.00;;;1.00;;
61477;SDS011;47345;52.334;10.392;2022-10-16T12:28:36;1.50;;;0.80;;
61477;SDS011;47345;52.334;10.392;2022-10-16T12:31:08;1.80;;;0.90;;
61477;SDS011;47345;52.334;10.392;2022-10-16T12:33:40;0.70;;;0.70;;
61477;SDS011;47345;52.334;10.392;2022-10-16T12:36:27;1.40;;;0.70;;
61477;SDS011;47345;52.334;10.392;2022-10-16T12:39:00;1.10;;;0.90;;
61477;SDS011;47345;52.334;10.392;2022-10-16T12:41:32;0.50;;;0.50;;
61477;SDS011;47345;52.334;10.392;2022-10-16T12:46:54;0.90;;;0.80;;
61477;SDS011;47345;52.334;10.392;2022-10-16T12:49:30;1.60;;;1.00;;
61477;SDS011;47345;52.334;10.392;2022-10-16T12:54:57;1.00;;;0.90;;
61477;SDS011;47345;52.334;10.392;2022-10-16T12:57:37;0.80;;;0.80;;
61477;SDS011;47345;52.334;10.392;2022-10-16T13:00:22;0.80;;;0.80;;
61477;SDS011;47345;52.334;10.392;2022-10-16T13:03:16;0.70;;;0.70;;
61477;SDS011;47345;52.334;10.392;2022-10-16T13:06:00;12.10;;;1.00;;
61477;SDS011;47345;52.334;10.392;2022-10-16T13:08:44;0.70;;;0.60;;
61477;SDS011;47345;52.334;10.392;2022-10-16T13:11:35;0.90;;;0.90;;
61477;SDS011;47345;52.334;10.392;2022-10-16T13:14:22;0.70;;;0.70;;
61477;SDS011;47345;52.334;10.392;2022-10-16T13:17:14;1.50;;;0.80;;
61477;SDS011;47345;52.334;10.392;2022-10-16T13:19:53;1.00;;;0.70;;
61477;SDS011;47345;52.334;10.392;2022-10-16T13:22:32;1.20;;;1.00;;
61477;SDS011;47345;52.334;10.392;2022-10-16T13:25:16;1.00;;;0.90;;
61477;SDS011;47345;52.334;10.392;2022-10-16T13:27:56;0.90;;;0.70;;
61477;SDS011;47345;52.334;10.392;2022-10-16T13:30:29;0.60;;;0.60;;
61477;SDS011;47345;52.334;10.392;2022-10-16T13:33:03;0.80;;;0.70;;
61477;SDS011;47345;52.334;10.392;2022-10-16T13:35:36;0.80;;;0.60;;
61477;SDS011;47345;52.334;10.392;2022-10-16T13:38:16;1.40;;;0.60;;
61477;SDS011;47345;52.334;10.392;2022-10-16T13:40:53;1.30;;;1.00;;
61477;SDS011;47345;52.334;10.392;2022-10-16T13:43:26;0.60;;;0.60;;
61477;SDS011;47345;52.334;10.392;2022-10-16T13:46:01;1.00;;;0.70;;
61477;SDS011;47345;52.334;10.392;2022-10-16T13:48:33;1.00;;;0.90;;
61477;SDS011;47345;52.334;10.392;2022-10-16T13:51:06;0.90;;;0.80;;
61477;SDS011;47345;52.334;10.392;2022-10-16T13:53:41;0.70;;;0.70;;
61477;SDS011;47345;52.334;10.392;2022-10-16T13:56:13;0.80;;;0.80;;
61477;SDS011;47345;52.334;10.392;2022-10-16T13:58:46;0.60;;;0.60;;
61477;SDS011;47345;52.334;10.392;2022-10-16T14:01:26;0.60;;;0.60;;
61477;SDS011;47345;52.334;10.392;2022-10-16T14:04:04;0.80;;;0.80;;
61477;SDS011;47345;52.334;10.392;2022-10-16T14:06:36;1.20;;;0.70;;
61477;SDS011;47345;52.334;10.392;2022-10-16T14:09:14;2.70;;;1.20;;
61477;SDS011;47345;52.334;10.392;2022-10-16T14:11:50;2.00;;;1.30;;
61477;SDS011;47345;52.334;10.392;2022-10-16T14:14:23;2.50;;;0.90;;
61477;SDS011;47345;52.334;10.392;2022-10-16T14:16:55;0.90;;;0.90;;
61477;SDS011;47345;52.334;10.392;2022-10-16T14:19:26;0.70;;;0.70;;
61477;SDS011;47345;52.334;10.392;2022-10-16T14:21:59;1.10;;;0.90;;
61477;SDS011;47345;52.334;10.392;2022-10-16T14:24:33;2.90;;;0.70;;
61477;SDS011;47345;52.334;10.392;2022-10-16T14:30:05;0.60;;;0.60;;
61477;SDS011;47345;52.334;10.392;2022-10-16T14:32:52;0.70;;;0.70;;
61477;SDS011;47345;52.334;10.392;2022-10-16T14:35:25;1.20;;;0.70;;
61477;SDS011;47345;52.334;10.392;2022-10-16T14:37:58;0.80;;;0.80;;
61477;SDS011;47345;52.334;10.392;2022-10-16T14:40:31;1.20;;;0.70;;
61477;SDS011;47345;52.334;10.392;2022-10-16T14:43:04;1.50;;;1.00;;
61477;SDS011;47345;52.334;10.392;2022-10-16T14:45:35;1.60;;;0.80;;
61477;SDS011;47345;52.334;10.392;2022-10-16T14:48:15;1.00;;;0.80;;
61477;SDS011;47345;52.334;10.392;2022-10-16T14:50:48;0.80;;;0.80;;
61477;SDS011;47345;52.334;10.392;2022-10-16T14:53:19;0.70;;;0.70;;
61477;SDS011;47345;52.334;10.392;2022-10-16T14:55:50;2.00;;;0.80;;
61477;SDS011;47345;52.334;10.392;2022-10-16T14:58:21;0.80;;;0.80;;
61477;SDS011;47345;52.334;10.392;2022-10-16T15:00:55;0.80;;;0.80;;
61477;SDS011;47345;52.334;10.392;2022-10-16T15:03:26;0.80;;;0.80;;
61477;SDS011;47345;52.334;10.392;2022-10-16T15:05:57;1.40;;;0.90;;
61477;SDS011;47345;52.334;10.392;2022-10-16T15:08:27;0.80;;;0.80;;
61477;SDS011;47345;52.334;10.392;2022-10-16T15:10:58;1.00;;;1.00;;
61477;SDS011;47345;52.334;10.392;2022-10-16T15:13:29;1.50;;;1.20;;
61477;SDS011;47345;52.334;10.392;2022-10-16T15:16:00;1.30;;;1.10;;
61477;SDS011;47345;52.334;10.392;2022-10-16T15:18:31;1.10;;;1.00;;
61477;SDS011;47345;52.334;10.392;2022-10-16T15:21:02;0.70;;;0.70;;
61477;SDS011;47345;52.334;10.392;2022-10-16T15:23:32;0.90;;;0.90;;
61477;SDS011;47345;52.334;10.392;2022-10-16T15:26:03;1.00;;;1.00;;
61477;SDS011;47345;52.334;10.392;2022-10-16T15:28:34;4.60;;;1.10;;
61477;SDS011;47345;52.334;10.392;2022-10-16T15:31:05;1.10;;;1.00;;
61477;SDS011;47345;52.334;10.392;2022-10-16T15:33:35;6.00;;;3.50;;
61477;SDS011;47345;52.334;10.392;2022-10-16T15:36:07;3.40;;;2.70;;
61477;SDS011;47345;52.334;10.392;2022-10-16T15:38:38;2.00;;;1.80;;